createdAt,value
2022-09-10T00:00:05.028Z,88
2022-09-10T00:01:07.246Z,87.9
2022-09-10T00:02:10.442Z,88.4
2022-09-10T00:03:14.265Z,87.9
2022-09-10T00:04:17.573Z,88
2022-09-10T00:05:20.853Z,88.2
2022-09-10T00:06:23.564Z,88
2022-09-10T00:07:26.628Z,87.8
2022-09-10T00:08:30.139Z,87.8
2022-09-10T00:09:33.186Z,87.9
2022-09-10T00:10:35.982Z,88
2022-09-10T00:11:39.132Z,87.8
2022-09-10T00:12:41.642Z,87.7
2022-09-10T00:13:43.895Z,87.8
2022-09-10T00:14:46.843Z,87.3
2022-09-10T00:15:50.853Z,87.6
2022-09-10T00:16:54.113Z,88
2022-09-10T00:17:56.831Z,87.8
2022-09-10T00:19:00.836Z,87.7
2022-09-10T00:20:04.081Z,87.9
2022-09-10T00:21:06.977Z,88
2022-09-10T00:22:09.837Z,87.9
2022-09-10T00:23:12.633Z,88.1
2022-09-10T00:24:15.700Z,87.7
2022-09-10T00:25:18.600Z,87.5
2022-09-10T00:26:21.998Z,87.8
2022-09-10T00:27:25.077Z,87.9
2022-09-10T00:28:28.183Z,87.9
2022-09-10T00:29:30.894Z,87.7
2022-09-10T00:30:33.671Z,87.6
2022-09-10T00:31:37.981Z,87.6
2022-09-10T00:32:41.191Z,87.5
2022-09-10T00:33:43.899Z,87.4
2022-09-10T00:34:46.701Z,87.5
2022-09-10T00:35:49.684Z,87.5
2022-09-10T00:36:53.681Z,87.5
2022-09-10T00:37:56.549Z,87.4
2022-09-10T00:38:59.139Z,87.4
2022-09-10T00:40:01.756Z,87.3
2022-09-10T00:41:05.294Z,87.5
2022-09-10T00:42:08.388Z,87.9
2022-09-10T00:43:12.117Z,87.8
2022-09-10T00:44:14.917Z,87.4
2022-09-10T00:45:17.434Z,87.4
2022-09-10T00:46:20.957Z,87.7
2022-09-10T00:47:24.764Z,87.9
2022-09-10T00:48:27.927Z,87.7
2022-09-10T00:49:31.343Z,87.9
2022-09-10T00:50:33.867Z,87.9
2022-09-10T00:51:36.397Z,87.7
2022-09-10T00:52:41.427Z,87.4
2022-09-10T00:53:44.497Z,87.5
2022-09-10T00:54:47.920Z,87.5
2022-09-10T00:55:51.069Z,87.4
2022-09-10T00:56:53.935Z,87.6
2022-09-10T00:57:57.002Z,87.7
2022-09-10T00:58:59.910Z,87.4
2022-09-10T01:00:02.755Z,87.2
2022-09-10T01:01:06.076Z,87.2
2022-09-10T01:02:09.319Z,88.2
2022-09-10T01:03:13.319Z,87.9
2022-09-10T01:04:16.490Z,87.8
2022-09-10T01:05:18.996Z,87.9
2022-09-10T01:06:21.901Z,87.7
2022-09-10T01:07:24.696Z,87.5
2022-09-10T01:08:27.865Z,87.5
2022-09-10T01:09:31.042Z,87.5
2022-09-10T01:10:34.854Z,87.3
2022-09-10T01:11:38.279Z,87.2
2022-09-10T01:12:41.434Z,87.4
2022-09-10T01:13:44.294Z,87.4
2022-09-10T01:14:47.890Z,87.6
2022-09-10T01:15:51.365Z,87.8
2022-09-10T01:16:54.898Z,87.7
2022-09-10T01:17:58.657Z,87.6
2022-09-10T01:19:02.251Z,87.6
2022-09-10T01:20:05.418Z,87.6
2022-09-10T01:21:08.844Z,87.6
2022-09-10T01:22:11.551Z,87.5
2022-09-10T01:23:18.837Z,87.5
2022-09-10T01:24:22.270Z,87.5
2022-09-10T01:25:25.687Z,87.6
2022-09-10T01:26:28.776Z,87.7
2022-09-10T01:27:32.000Z,87.5
2022-09-10T01:28:35.425Z,87.6
2022-09-10T01:29:38.887Z,87.4
2022-09-10T01:30:42.114Z,87.4
2022-09-10T01:31:45.725Z,87.3
2022-09-10T01:32:49.293Z,87.3
2022-09-10T01:33:52.149Z,87.6
2022-09-10T01:34:55.903Z,87.6
2022-09-10T01:35:58.696Z,87.7
2022-09-10T01:37:01.848Z,87.7
2022-09-10T01:38:04.473Z,87.6
2022-09-10T01:39:07.263Z,87.5
2022-09-10T01:40:10.584Z,87.4
2022-09-10T01:41:13.230Z,87.5
2022-09-10T01:42:16.115Z,87.6
2022-09-10T01:43:19.253Z,87.7
2022-09-10T01:44:22.473Z,87.8
2022-09-10T01:45:26.040Z,87.8
2022-09-10T01:46:28.956Z,87.5
2022-09-10T01:47:32.021Z,87.4
2022-09-10T01:48:35.494Z,87.2
2022-09-10T01:49:39.120Z,87.2
2022-09-10T01:50:43.193Z,87.3
2022-09-10T01:51:46.726Z,87.4
2022-09-10T01:52:49.250Z,87.4
2022-09-10T01:53:52.586Z,87.3
2022-09-10T01:54:55.404Z,87.2
2022-09-10T01:55:58.889Z,87.3
2022-09-10T01:57:01.612Z,87.4
2022-09-10T01:58:04.023Z,87.3
2022-09-10T01:59:07.485Z,87.8
2022-09-10T02:00:10.273Z,87.7
2022-09-10T02:01:13.165Z,87.8
2022-09-10T02:02:15.587Z,87.7
2022-09-10T02:03:18.978Z,87.6
2022-09-10T02:04:22.421Z,87.8
2022-09-10T02:05:25.759Z,87.7
2022-09-10T02:06:29.319Z,87.6
2022-09-10T02:07:32.152Z,87.8
2022-09-10T02:08:35.785Z,87.6
2022-09-10T02:09:39.043Z,87.6
2022-09-10T02:10:42.265Z,87.6
2022-09-10T02:11:45.893Z,87.6
2022-09-10T02:12:48.888Z,87.7
2022-09-10T02:13:51.120Z,87.8
2022-09-10T02:14:54.568Z,87.6
2022-09-10T02:15:57.640Z,87.8
2022-09-10T02:17:01.501Z,88
2022-09-10T02:18:04.671Z,88.2
2022-09-10T02:19:08.040Z,88.2
2022-09-10T02:20:11.102Z,87.9
2022-09-10T02:21:14.571Z,87.7
2022-09-10T02:22:18.319Z,87.7
2022-09-10T02:23:21.843Z,88
2022-09-10T02:24:25.190Z,87.8
2022-09-10T02:25:28.092Z,87.8
2022-09-10T02:26:31.361Z,87.6
2022-09-10T02:27:33.882Z,87.5
2022-09-10T02:28:37.659Z,87.3
2022-09-10T02:29:41.695Z,87.7
2022-09-10T02:30:44.714Z,87.9
2022-09-10T02:31:48.153Z,88
2022-09-10T02:32:51.597Z,88.4
2022-09-10T02:33:54.472Z,88.2
2022-09-10T02:34:57.331Z,87.9
2022-09-10T02:36:00.836Z,87.9
2022-09-10T02:37:04.312Z,87.9
2022-09-10T02:38:08.164Z,87.9
2022-09-10T02:39:11.152Z,87.8
2022-09-10T02:40:14.168Z,87.9
2022-09-10T02:41:17.703Z,88
2022-09-10T02:42:20.862Z,88.1
2022-09-10T02:43:23.722Z,88
2022-09-10T02:44:26.993Z,87.9
2022-09-10T02:45:30.135Z,87.8
2022-09-10T02:46:33.372Z,88.1
2022-09-10T02:47:36.186Z,88.1
2022-09-10T02:48:40.191Z,87.8
2022-09-10T02:49:43.699Z,87.9
2022-09-10T02:50:46.562Z,88
2022-09-10T02:51:49.942Z,88
2022-09-10T02:52:52.733Z,87.7
2022-09-10T02:53:56.525Z,87.7
2022-09-10T02:55:00.055Z,87.8
2022-09-10T02:56:03.205Z,87.8
2022-09-10T02:57:06.619Z,87.7
2022-09-10T02:58:09.753Z,87.8
2022-09-10T02:59:12.813Z,87.9
2022-09-10T03:00:15.866Z,88.2
2022-09-10T03:01:18.672Z,88
2022-09-10T03:02:22.327Z,87.9
2022-09-10T03:03:25.487Z,87.9
2022-09-10T03:04:28.667Z,88.3
2022-09-10T03:05:31.989Z,88.6
2022-09-10T03:06:34.927Z,88.8
2022-09-10T03:07:38.268Z,88.6
2022-09-10T03:08:42.026Z,88.2
2022-09-10T03:09:45.794Z,88.2
2022-09-10T03:10:48.463Z,88.1
2022-09-10T03:11:51.870Z,88.1
2022-09-10T03:12:54.740Z,88.2
2022-09-10T03:13:57.612Z,88.3
2022-09-10T03:15:01.065Z,88.4
2022-09-10T03:16:04.715Z,88.1
2022-09-10T03:17:07.652Z,88.2
2022-09-10T03:18:10.856Z,88.1
2022-09-10T03:19:13.362Z,88
2022-09-10T03:20:15.918Z,88.2
2022-09-10T03:21:19.361Z,88.3
2022-09-10T03:22:22.441Z,88.3
2022-09-10T03:23:25.868Z,88.3
2022-09-10T03:24:29.007Z,88.3
2022-09-10T03:25:33.148Z,88.3
2022-09-10T03:26:35.742Z,88.3
2022-09-10T03:27:38.631Z,88.4
2022-09-10T03:28:42.071Z,88.4
2022-09-10T03:29:45.137Z,88.4
2022-09-10T03:30:47.575Z,88.3
2022-09-10T03:31:50.465Z,88.5
2022-09-10T03:32:53.418Z,88.5
2022-09-10T03:33:56.481Z,88.2
2022-09-10T03:34:59.558Z,88.4
2022-09-10T03:36:02.191Z,88.3
2022-09-10T03:37:05.090Z,88.4
2022-09-10T03:38:07.602Z,89.4
2022-09-10T03:39:10.390Z,89.7
2022-09-10T03:40:13.881Z,89.5
2022-09-10T03:41:18.107Z,89.2
2022-09-10T03:42:21.360Z,89.2
2022-09-10T03:43:24.721Z,89.3
2022-09-10T03:44:28.067Z,89.1
2022-09-10T03:45:30.810Z,88.9
2022-09-10T03:46:33.165Z,88.6
2022-09-10T03:47:36.352Z,88.9
2022-09-10T03:48:39.931Z,89.3
2022-09-10T03:49:43.779Z,89.5
2022-09-10T03:50:47.049Z,89.5
2022-09-10T03:51:51.034Z,89.3
2022-09-10T03:52:54.191Z,89.2
2022-09-10T03:53:57.076Z,89.6
2022-09-10T03:54:59.953Z,89.4
2022-09-10T03:56:03.072Z,89.1
2022-09-10T03:57:07.193Z,88.7
2022-09-10T03:58:10.252Z,88.8
2022-09-10T03:59:13.117Z,89.1
2022-09-10T04:00:15.526Z,89.3
2022-09-10T04:01:19.093Z,89.7
2022-09-10T04:02:22.155Z,90
2022-09-10T04:03:25.663Z,90
2022-09-10T04:04:29.475Z,89.9
2022-09-10T04:05:32.807Z,89.7
2022-09-10T04:06:36.069Z,89.3
2022-09-10T04:07:39.525Z,89.4
2022-09-10T04:08:42.244Z,89.5
2022-09-10T04:09:45.122Z,89.9
2022-09-10T04:10:47.563Z,89.9
2022-09-10T04:11:51.143Z,89.6
2022-09-10T04:12:55.212Z,89.6
2022-09-10T04:13:57.648Z,89.5
2022-09-10T04:15:01.649Z,89.4
2022-09-10T04:16:04.976Z,89.6
2022-09-10T04:17:07.807Z,89.6
2022-09-10T04:18:10.885Z,90
2022-09-10T04:19:13.875Z,89.7
2022-09-10T04:20:16.398Z,89.9
2022-09-10T04:21:19.569Z,89.7
2022-09-10T04:22:22.713Z,89.5
2022-09-10T04:23:25.311Z,89.7
2022-09-10T04:24:29.033Z,89.6
2022-09-10T04:25:32.650Z,89.4
2022-09-10T04:26:36.087Z,89.7
2022-09-10T04:27:39.057Z,89.9
2022-09-10T04:28:43.128Z,90.2
2022-09-10T04:29:46.671Z,89.9
2022-09-10T04:30:49.269Z,90.3
2022-09-10T04:31:53.190Z,89.8
2022-09-10T04:32:56.220Z,89.7
2022-09-10T04:33:59.285Z,89.6
2022-09-10T04:35:02.521Z,89.4
2022-09-10T04:36:05.948Z,89.4
2022-09-10T04:37:08.387Z,89.6
2022-09-10T04:38:11.268Z,89.9
2022-09-10T04:39:14.067Z,89.8
2022-09-10T04:40:16.381Z,89.5
2022-09-10T04:41:20.158Z,89.4
2022-09-10T04:42:23.385Z,89.7
2022-09-10T04:43:26.308Z,90
2022-09-10T04:44:30.085Z,89.9
2022-09-10T04:45:33.677Z,89.6
2022-09-10T04:46:36.655Z,89.5
2022-09-10T04:47:39.450Z,89.5
2022-09-10T04:48:42.789Z,89.7
2022-09-10T04:49:45.740Z,89.8
2022-09-10T04:51:18.531Z,89.6
2022-09-10T04:52:21.938Z,89.3
2022-09-10T04:53:25.045Z,89.4
2022-09-10T04:54:28.388Z,89.3
2022-09-10T04:55:30.964Z,89.3
2022-09-10T04:56:33.754Z,89.3
2022-09-10T04:57:36.269Z,89.4
2022-09-10T04:58:41.657Z,89.4
2022-09-10T04:59:46.408Z,89.5
2022-09-10T05:00:49.478Z,89.5
2022-09-10T05:01:52.647Z,89.5
2022-09-10T05:02:55.238Z,89.4
2022-09-10T05:03:58.032Z,89.4
2022-09-10T05:05:00.893Z,89.4
2022-09-10T05:06:03.988Z,89.4
2022-09-10T05:07:07.805Z,89.5
2022-09-10T05:08:10.603Z,89.4
2022-09-10T05:09:12.931Z,89.4
2022-09-10T05:10:15.733Z,89.4
2022-09-10T05:11:18.630Z,89.4
2022-09-10T05:12:21.880Z,89.3
2022-09-10T05:13:25.209Z,89.3
2022-09-10T05:14:28.063Z,89.2
2022-09-10T05:15:31.883Z,89.5
2022-09-10T05:16:35.853Z,89.4
2022-09-10T05:17:39.289Z,89.1
2022-09-10T05:18:42.464Z,88.9
2022-09-10T05:19:45.538Z,88.7
2022-09-10T05:20:48.396Z,88.4
2022-09-10T05:21:50.714Z,88.3
2022-09-10T05:22:54.161Z,88.2
2022-09-10T05:23:56.690Z,88.3
2022-09-10T05:24:59.402Z,88.4
2022-09-10T05:26:02.743Z,88.7
2022-09-10T05:27:06.238Z,88.9
2022-09-10T05:28:09.577Z,88.9
2022-09-10T05:29:12.242Z,88.8
2022-09-10T05:30:16.018Z,88.8
2022-09-10T05:31:20.359Z,88.9
2022-09-10T05:32:22.934Z,88.8
2022-09-10T05:33:26.101Z,88.6
2022-09-10T05:34:28.634Z,88.6
2022-09-10T05:35:31.150Z,88.3
2022-09-10T05:36:34.295Z,88.5
2022-09-10T05:37:37.162Z,88.7
2022-09-10T05:38:42.442Z,88.7
2022-09-10T05:39:46.223Z,88.8
2022-09-10T05:40:49.316Z,88.7
2022-09-10T05:41:52.774Z,88.7
2022-09-10T05:42:56.055Z,88.6
2022-09-10T05:43:59.747Z,88.6
2022-09-10T05:45:02.290Z,88.5
2022-09-10T05:46:05.741Z,88.5
2022-09-10T05:47:10.010Z,88.4
2022-09-10T05:48:12.483Z,88.4
2022-09-10T05:49:15.468Z,88.1
2022-09-10T05:50:18.891Z,88.1
2022-09-10T05:51:21.751Z,88.3
2022-09-10T05:52:25.113Z,88.4
2022-09-10T05:53:28.751Z,88.4
2022-09-10T05:54:31.822Z,88.2
2022-09-10T05:55:34.966Z,88.2
2022-09-10T05:56:37.403Z,88.4
2022-09-10T05:57:40.500Z,88.1
2022-09-10T05:58:43.205Z,88.4
2022-09-10T05:59:45.914Z,88.4
2022-09-10T06:00:49.373Z,88.3
2022-09-10T06:01:52.397Z,88
2022-09-10T06:02:57.337Z,87.5
2022-09-10T06:04:00.379Z,87.9
2022-09-10T06:05:02.939Z,88
2022-09-10T06:06:05.815Z,87.8
2022-09-10T06:07:08.062Z,88
2022-09-10T06:08:11.484Z,88.1
2022-09-10T06:09:14.845Z,88.3
2022-09-10T06:10:17.723Z,88
2022-09-10T06:11:20.791Z,87.8
2022-09-10T06:12:24.015Z,87.7
2022-09-10T06:13:27.669Z,87.9
2022-09-10T06:14:31.132Z,87.5
2022-09-10T06:15:34.215Z,88.4
2022-09-10T06:16:37.595Z,88.2
2022-09-10T06:17:41.031Z,87.9
2022-09-10T06:18:44.827Z,88.4
2022-09-10T06:19:48.297Z,88.2
2022-09-10T06:20:51.361Z,88.7
2022-09-10T06:21:55.010Z,88.2
2022-09-10T06:22:57.713Z,87.8
2022-09-10T06:24:00.310Z,87.6
2022-09-10T06:25:02.746Z,87.8
2022-09-10T06:26:05.815Z,87.7
2022-09-10T06:27:09.267Z,87.5
2022-09-10T06:28:11.886Z,87.8
2022-09-10T06:29:15.029Z,87.7
2022-09-10T06:30:18.079Z,88.3
2022-09-10T06:31:20.612Z,88
2022-09-10T06:32:23.959Z,88
2022-09-10T06:33:27.669Z,88.4
2022-09-10T06:34:31.732Z,88
2022-09-10T06:35:34.809Z,87.8
2022-09-10T06:36:38.224Z,87.9
2022-09-10T06:37:41.686Z,87.8
2022-09-10T06:38:44.548Z,88
2022-09-10T06:39:47.307Z,88.1
2022-09-10T06:40:50.780Z,88.2
2022-09-10T06:41:53.589Z,88.1
2022-09-10T06:42:56.670Z,88.3
2022-09-10T06:43:59.749Z,88.5
2022-09-10T06:45:02.282Z,88.1
2022-09-10T06:46:05.767Z,88.2
2022-09-10T06:48:47.124Z,87.9
2022-09-10T06:49:55.008Z,87.2
2022-09-10T06:50:57.919Z,87.6
2022-09-10T06:52:00.711Z,87.5
2022-09-10T06:53:03.857Z,87.1
2022-09-10T06:54:06.953Z,87.1
2022-09-10T06:55:09.893Z,87
2022-09-10T06:56:12.792Z,87.3
2022-09-10T06:57:16.530Z,87.7
2022-09-10T06:58:19.137Z,87.4
2022-09-10T06:59:22.193Z,87.2
2022-09-10T07:00:24.554Z,86.7
2022-09-10T07:01:26.928Z,87.3
2022-09-10T07:02:30.227Z,87.3
2022-09-10T07:03:32.951Z,87.1
2022-09-10T07:04:35.989Z,87
2022-09-10T07:05:40.149Z,86.7
2022-09-10T07:06:42.591Z,86.5
2022-09-10T07:07:45.254Z,86.4
2022-09-10T07:08:48.343Z,86.3
2022-09-10T07:09:51.477Z,86.3
2022-09-10T07:10:53.710Z,85.8
2022-09-10T07:11:56.311Z,85.8
2022-09-10T07:12:59.557Z,85.8
2022-09-10T07:14:02.755Z,85.5
2022-09-10T07:15:05.626Z,85.1
2022-09-10T07:16:08.249Z,84.8
2022-09-10T07:17:10.843Z,84.5
2022-09-10T07:18:14.216Z,84.7
2022-09-10T07:19:17.677Z,84.9
2022-09-10T07:20:20.239Z,85.2
2022-09-10T07:21:24.318Z,85.2
2022-09-10T07:22:27.468Z,84.5
2022-09-10T07:23:30.135Z,84.4
2022-09-10T07:24:33.250Z,84.9
2022-09-10T07:25:36.405Z,85.5
2022-09-10T07:26:39.584Z,85.4
2022-09-10T07:27:43.000Z,85.3
2022-09-10T07:28:45.794Z,84.3
2022-09-10T07:29:48.869Z,84.9
2022-09-10T07:30:52.337Z,84.7
2022-09-10T07:31:55.479Z,84.7
2022-09-10T07:32:58.897Z,83.8
2022-09-10T07:34:01.328Z,83.4
2022-09-10T07:35:04.559Z,82.8
2022-09-10T07:36:07.949Z,83.5
2022-09-10T07:37:12.059Z,83
2022-09-10T07:38:14.926Z,82.3
2022-09-10T07:39:19.705Z,81
2022-09-10T07:40:29.175Z,82.1
2022-09-10T07:41:31.958Z,82.3
2022-09-10T07:42:33.914Z,82.9
2022-09-10T07:43:36.716Z,82.3
2022-09-10T07:44:39.521Z,81.3
2022-09-10T07:45:42.988Z,80.8
2022-09-10T07:46:46.031Z,80
2022-09-10T07:47:49.838Z,80.7
2022-09-10T07:48:52.426Z,79.2
2022-09-10T07:49:55.049Z,79.4
2022-09-10T07:50:58.487Z,79
2022-09-10T07:52:01.554Z,80.2
2022-09-10T07:53:05.425Z,81.1
2022-09-10T07:54:08.694Z,82
2022-09-10T07:55:11.233Z,81.4
2022-09-10T07:56:14.963Z,81.7
2022-09-10T07:57:17.749Z,79.1
2022-09-10T07:58:20.930Z,78.5
2022-09-10T07:59:24.073Z,78.8
2022-09-10T08:00:26.943Z,79.4
2022-09-10T08:01:30.265Z,77.6
2022-09-10T08:02:33.928Z,77.2
2022-09-10T08:03:37.142Z,78.2
2022-09-10T08:04:40.138Z,76.7
2022-09-10T08:05:42.931Z,77.5
2022-09-10T08:06:45.722Z,77.4
2022-09-10T08:07:48.842Z,78.6
2022-09-10T08:08:52.970Z,77.9
2022-09-10T08:09:55.482Z,79
2022-09-10T08:10:58.624Z,78
2022-09-10T08:12:01.778Z,79.5
2022-09-10T08:13:05.045Z,78.7
2022-09-10T08:14:07.903Z,77.5
2022-09-10T08:15:11.526Z,76.7
2022-09-10T08:16:14.245Z,76.2
2022-09-10T08:17:17.199Z,76.9
2022-09-10T08:18:20.089Z,79.6
2022-09-10T08:19:23.360Z,79.2
2022-09-10T08:20:26.510Z,76.2
2022-09-10T08:21:29.500Z,75.7
2022-09-10T08:22:33.166Z,77.2
2022-09-10T08:23:36.574Z,77.2
2022-09-10T08:24:40.661Z,75.7
2022-09-10T08:25:43.810Z,76
2022-09-10T08:26:47.817Z,74.7
2022-09-10T08:27:51.543Z,75.8
2022-09-10T08:28:54.134Z,76.7
2022-09-10T08:29:57.213Z,76.9
2022-09-10T08:30:59.750Z,76.2
2022-09-10T08:32:03.338Z,74.6
2022-09-10T08:33:06.211Z,74.8
2022-09-10T08:34:09.950Z,74.6
2022-09-10T08:35:13.677Z,73.9
2022-09-10T08:36:16.068Z,73.5
2022-09-10T08:37:18.676Z,74
2022-09-10T08:38:22.110Z,74.6
2022-09-10T08:39:24.862Z,74.6
2022-09-10T08:40:28.723Z,75.8
2022-09-10T08:41:32.085Z,76.3
2022-09-10T08:42:35.782Z,76.4
2022-09-10T08:43:38.652Z,74.3
2022-09-10T08:44:42.000Z,72.5
2022-09-10T08:45:44.463Z,71.6
2022-09-10T08:46:47.178Z,74
2022-09-10T08:47:50.527Z,73.9
2022-09-10T08:48:53.121Z,74.2
2022-09-10T08:49:56.462Z,73.5
2022-09-10T08:50:59.552Z,74.3
2022-09-10T08:52:02.064Z,70.6
2022-09-10T08:53:05.407Z,70.7
2022-09-10T08:54:08.487Z,69.8
2022-09-10T08:55:11.516Z,69.5
2022-09-10T08:56:15.591Z,67.8
2022-09-10T08:57:19.312Z,67.3
2022-09-10T08:58:22.655Z,67.2
2022-09-10T08:59:25.722Z,68.2
2022-09-10T09:00:28.787Z,69.5
2022-09-10T09:01:32.170Z,69.1
2022-09-10T09:02:50.541Z,69.7
2022-09-10T09:03:53.506Z,68.1
2022-09-10T09:04:56.174Z,67.4
2022-09-10T09:05:59.601Z,65.8
2022-09-10T09:07:01.753Z,64.7
2022-09-10T09:08:05.014Z,64.5
2022-09-10T09:09:09.547Z,67.8
2022-09-10T09:10:18.765Z,67.2
2022-09-10T09:11:22.863Z,65.7
2022-09-10T09:12:25.100Z,64.8
2022-09-10T09:13:28.472Z,66
2022-09-10T09:14:31.550Z,65.3
2022-09-10T09:15:34.650Z,64.5
2022-09-10T09:16:38.227Z,62
2022-09-10T09:17:41.370Z,60.9
2022-09-10T09:18:43.973Z,60.4
2022-09-10T09:19:47.712Z,60.4
2022-09-10T09:20:51.235Z,60.5
2022-09-10T09:21:54.656Z,61.9
2022-09-10T09:22:58.103Z,62.5
2022-09-10T09:24:16.058Z,63
2022-09-10T09:25:18.863Z,62.1
2022-09-10T09:26:22.159Z,59.8
2022-09-10T09:27:25.979Z,61.6
2022-09-10T09:28:29.047Z,60.2
2022-09-10T09:29:32.318Z,59.5
2022-09-10T09:30:35.480Z,58.6
2022-09-10T09:31:38.937Z,58.3
2022-09-10T09:32:42.165Z,57.1
2022-09-10T09:33:44.948Z,53.5
2022-09-10T09:34:47.611Z,57.1
2022-09-10T09:35:50.984Z,58
2022-09-10T09:36:55.055Z,59.6
2022-09-10T09:37:57.762Z,61.1
2022-09-10T09:39:00.917Z,61.7
2022-09-10T09:40:03.263Z,61.2
2022-09-10T09:41:06.474Z,61
2022-09-10T09:42:09.670Z,61.8
2022-09-10T09:43:13.466Z,62.7
2022-09-10T09:44:17.110Z,63.6
2022-09-10T09:45:19.891Z,63.9
2022-09-10T09:46:23.323Z,64.7
2022-09-10T09:47:26.404Z,64.8
2022-09-10T09:48:30.025Z,64.4
2022-09-10T09:49:33.451Z,63.5
2022-09-10T09:50:36.056Z,62.4
2022-09-10T09:51:39.782Z,60.5
2022-09-10T09:52:42.571Z,59.9
2022-09-10T09:55:03.493Z,60.6
2022-09-10T09:56:18.551Z,62.2
2022-09-10T09:57:21.948Z,62.1
2022-09-10T09:58:26.120Z,63.1
2022-09-10T09:59:28.662Z,62.6
2022-09-10T10:00:31.261Z,62.4
2022-09-10T10:01:34.497Z,63.4
2022-09-10T10:02:37.829Z,64.3
2022-09-10T10:03:41.482Z,66
2022-09-10T10:04:44.568Z,68.4
2022-09-10T10:05:47.649Z,65.8
2022-09-10T10:06:49.992Z,67.5
2022-09-10T10:07:53.169Z,69
2022-09-10T10:08:56.319Z,66
2022-09-10T10:09:59.592Z,63.9
2022-09-10T10:11:02.762Z,64.5
2022-09-10T10:12:06.482Z,63.8
2022-09-10T10:13:09.403Z,64.2
2022-09-10T10:14:13.260Z,65
2022-09-10T10:15:16.245Z,65.2
2022-09-10T10:16:19.211Z,63.8
2022-09-10T10:17:21.519Z,62.1
2022-09-10T10:18:24.603Z,62.6
2022-09-10T10:19:27.054Z,62.8
2022-09-10T10:20:30.477Z,62.4
2022-09-10T10:21:33.718Z,61.2
2022-09-10T10:22:37.342Z,61.1
2022-09-10T10:23:40.413Z,61.4
2022-09-10T10:24:43.511Z,63.1
2022-09-10T10:25:46.666Z,60.6
2022-09-10T10:26:49.262Z,59.2
2022-09-10T10:27:52.359Z,58.5
2022-09-10T10:28:55.007Z,59.3
2022-09-10T10:29:58.806Z,59.3
2022-09-10T10:31:02.355Z,58.7
2022-09-10T10:32:06.728Z,58.9
2022-09-10T10:33:10.153Z,56.5
2022-09-10T10:34:13.253Z,57
2022-09-10T10:35:16.316Z,58.1
2022-09-10T10:36:20.052Z,56.2
2022-09-10T10:37:22.563Z,54.5
2022-09-10T10:38:25.735Z,56
2022-09-10T10:39:28.452Z,55.1
2022-09-10T10:40:32.162Z,55.3
2022-09-10T10:41:34.597Z,54.4
2022-09-10T10:42:37.511Z,54.8
2022-09-10T10:43:40.569Z,52.4
2022-09-10T10:44:44.026Z,55.2
2022-09-10T10:45:47.904Z,54.8
2022-09-10T10:46:50.720Z,54.5
2022-09-10T10:47:53.520Z,54
2022-09-10T10:49:03.473Z,55.1
2022-09-10T10:50:07.130Z,57.3
2022-09-10T10:51:10.387Z,56.9
2022-09-10T10:52:12.906Z,58.7
2022-09-10T10:53:15.420Z,59.1
2022-09-10T10:54:18.621Z,59.5
2022-09-10T10:55:21.386Z,57.5
2022-09-10T10:56:23.716Z,56.5
2022-09-10T10:57:26.439Z,57.3
2022-09-10T10:58:29.305Z,57.4
2022-09-10T10:59:32.850Z,57.9
2022-09-10T11:00:35.680Z,58.7
2022-09-10T11:01:39.705Z,59.3
2022-09-10T11:02:43.049Z,60
2022-09-10T11:03:45.800Z,60.5
2022-09-10T11:04:49.145Z,60.9
2022-09-10T11:05:52.208Z,61.8
2022-09-10T11:06:54.654Z,60.1
2022-09-10T11:07:57.746Z,59.5
2022-09-10T11:09:01.780Z,60
2022-09-10T11:10:04.580Z,59.3
2022-09-10T11:11:07.841Z,60
2022-09-10T11:12:10.731Z,59.9
2022-09-10T11:13:12.953Z,59.6
2022-09-10T11:14:15.814Z,60.2
2022-09-10T11:15:18.877Z,59.7
2022-09-10T11:16:22.010Z,60.6
2022-09-10T11:17:25.838Z,61
2022-09-10T11:18:29.363Z,61.2
2022-09-10T11:19:32.161Z,62.6
2022-09-10T11:20:34.953Z,62.8
2022-09-10T11:21:37.541Z,62.5
2022-09-10T11:22:40.395Z,62.7
2022-09-10T11:23:44.038Z,62.7
2022-09-10T11:24:46.720Z,62.9
2022-09-10T11:25:50.259Z,62.2
2022-09-10T11:26:52.848Z,61.8
2022-09-10T11:27:55.391Z,62.6
2022-09-10T11:28:57.822Z,62.5
2022-09-10T11:30:01.049Z,62.7
2022-09-10T11:31:03.669Z,63.1
2022-09-10T11:32:06.991Z,62.6
2022-09-10T11:33:11.080Z,63.5
2022-09-10T11:34:14.150Z,64.5
2022-09-10T11:35:16.947Z,65.8
2022-09-10T11:36:20.377Z,67
2022-09-10T11:37:23.345Z,67.6
2022-09-10T11:38:27.062Z,69.1
2022-09-10T11:39:30.468Z,69.1
2022-09-10T11:40:33.338Z,68.5
2022-09-10T11:41:36.699Z,68.6
2022-09-10T11:42:39.913Z,68.9
2022-09-10T11:43:42.697Z,68.2
2022-09-10T11:44:45.855Z,67.6
2022-09-10T11:45:48.292Z,68.1
2022-09-10T11:46:51.094Z,69.3
2022-09-10T11:47:54.003Z,69.7
2022-09-10T11:48:57.880Z,70.4
2022-09-10T11:50:01.336Z,70.5
2022-09-10T11:51:04.698Z,70.7
2022-09-10T11:52:08.703Z,70.8
2022-09-10T11:53:11.856Z,71.3
2022-09-10T11:54:14.807Z,71.2
2022-09-10T11:55:18.223Z,71.3
2022-09-10T11:56:21.293Z,71.8
2022-09-10T11:57:25.022Z,72
2022-09-10T11:58:28.453Z,71.9
2022-09-10T11:59:31.405Z,72
2022-09-10T12:00:33.926Z,71.8
2022-09-10T12:01:36.525Z,72.2
2022-09-10T12:02:39.592Z,72.5
2022-09-10T12:03:42.882Z,72.8
2022-09-10T12:04:49.194Z,73.6
2022-09-10T12:05:52.302Z,74.6
2022-09-10T12:06:55.672Z,74.4
2022-09-10T12:07:58.538Z,74.6
2022-09-10T12:09:02.265Z,75.4
2022-09-10T12:10:05.535Z,74.9
2022-09-10T12:11:09.378Z,74.9
2022-09-10T12:12:13.108Z,75
2022-09-10T12:13:16.075Z,75.2
2022-09-10T12:14:19.069Z,75.5
2022-09-10T12:15:21.869Z,75.9
2022-09-10T12:16:25.595Z,75.9
2022-09-10T12:17:28.395Z,76
2022-09-10T12:18:31.195Z,75.8
2022-09-10T12:19:34.391Z,76.5
2022-09-10T12:20:38.472Z,76.3
2022-09-10T12:21:41.720Z,76.7
2022-09-10T12:22:44.787Z,77.2
2022-09-10T12:23:47.572Z,77.1
2022-09-10T12:24:51.065Z,77.2
2022-09-10T12:25:54.513Z,77.1
2022-09-10T12:26:58.017Z,77.3
2022-09-10T12:28:01.359Z,76.9
2022-09-10T12:29:04.239Z,77.5
2022-09-10T12:30:07.670Z,77.6
2022-09-10T12:31:09.960Z,77.2
2022-09-10T12:32:13.836Z,77.9
2022-09-10T12:33:17.282Z,78.1
2022-09-10T12:34:20.273Z,77.9
2022-09-10T12:35:22.816Z,78.3
2022-09-10T12:36:26.906Z,78.1
2022-09-10T12:37:29.724Z,78.5
2022-09-10T12:38:32.231Z,78.9
2022-09-10T12:39:35.568Z,79.6
2022-09-10T12:40:38.479Z,79
2022-09-10T12:41:40.914Z,79.3
2022-09-10T12:42:43.520Z,78.8
2022-09-10T12:43:46.059Z,79.2
2022-09-10T12:44:48.775Z,79.5
2022-09-10T12:45:52.349Z,79.1
2022-09-10T12:46:55.973Z,79.3
2022-09-10T12:47:59.428Z,79.6
2022-09-10T12:49:02.385Z,79.5
2022-09-10T12:50:05.381Z,79.4
2022-09-10T12:51:08.800Z,79.7
2022-09-10T12:52:12.953Z,79.5
2022-09-10T12:53:15.739Z,79.8
2022-09-10T12:54:18.452Z,79.7
2022-09-10T12:55:20.439Z,79.4
2022-09-10T12:56:23.712Z,79.6
2022-09-10T12:57:26.220Z,79.7
2022-09-10T12:58:29.564Z,79.3
2022-09-10T12:59:32.441Z,79.1
2022-09-10T13:00:35.407Z,79.8
2022-09-10T13:01:38.969Z,79.6
2022-09-10T13:02:42.780Z,79.6
2022-09-10T13:03:45.925Z,80.2
2022-09-10T13:04:48.994Z,80.5
2022-09-10T13:05:52.223Z,80.1
2022-09-10T13:06:55.926Z,80.4
2022-09-10T13:08:00.078Z,79.9
2022-09-10T13:09:03.532Z,80.1
2022-09-10T13:10:06.317Z,80.9
2022-09-10T13:11:09.192Z,81.5
2022-09-10T13:12:12.262Z,81.4
2022-09-10T13:13:14.660Z,81
2022-09-10T13:14:17.536Z,80.7
2022-09-10T13:15:20.882Z,81.6
2022-09-10T13:16:23.681Z,81.4
2022-09-10T13:17:27.679Z,81.1
2022-09-10T13:18:30.566Z,80.9
2022-09-10T13:19:33.515Z,81.1
2022-09-10T13:20:36.297Z,80.6
2022-09-10T13:21:40.022Z,79.9
2022-09-10T13:22:43.234Z,80.1
2022-09-10T13:23:47.046Z,80.2
2022-09-10T13:24:50.584Z,80.8
2022-09-10T13:25:53.474Z,80.4
2022-09-10T13:26:56.062Z,80.5
2022-09-10T13:27:59.489Z,80.6
2022-09-10T13:29:02.561Z,80.2
2022-09-10T13:30:05.785Z,79.8
2022-09-10T13:31:09.603Z,79.8
2022-09-10T13:32:12.462Z,79.2
2022-09-10T13:33:29.740Z,78.9
2022-09-10T13:34:33.535Z,78.5
2022-09-10T13:35:36.672Z,77.6
2022-09-10T13:36:39.532Z,77.1
2022-09-10T13:37:42.409Z,76.6
2022-09-10T13:38:45.819Z,75.6
2022-09-10T13:39:49.863Z,74.8
2022-09-10T13:40:52.461Z,73.2
2022-09-10T13:41:55.255Z,72.6
2022-09-10T13:42:58.036Z,71.9
2022-09-10T13:44:02.234Z,71.5
2022-09-10T13:45:05.570Z,71
2022-09-10T13:46:08.759Z,71.4
2022-09-10T13:47:11.939Z,70.6
2022-09-10T13:48:14.180Z,70.2
2022-09-10T13:49:17.951Z,69.5
2022-09-10T13:50:20.747Z,70.4
2022-09-10T13:51:23.181Z,71.5
2022-09-10T13:52:26.272Z,71.4
2022-09-10T13:53:29.693Z,72.1
2022-09-10T13:54:32.910Z,72.1
2022-09-10T13:55:36.992Z,72.5
2022-09-10T13:56:40.714Z,72.5
2022-09-10T13:57:42.952Z,73.1
2022-09-10T13:58:46.379Z,73.1
2022-09-10T13:59:49.523Z,73.1
2022-09-10T14:00:52.642Z,72.9
2022-09-10T14:01:55.773Z,73.1
2022-09-10T14:02:58.812Z,73.5
2022-09-10T14:04:01.131Z,73.6
2022-09-10T14:05:03.731Z,74.7
2022-09-10T14:06:06.805Z,74.2
2022-09-10T14:07:09.328Z,74.3
2022-09-10T14:08:12.405Z,74.2
2022-09-10T14:09:15.119Z,75.1